createdAt,value
2018-09-17T00:00:41.187Z,51.20
2018-09-17T00:01:41.162Z,48.71
2018-09-17T00:02:41.131Z,49.38
2018-09-17T00:03:41.108Z,49.29
2018-09-17T00:04:41.080Z,46.51
2018-09-17T00:05:41.057Z,45.17
2018-09-17T00:06:41.028Z,50.15
2018-09-17T00:07:41.009Z,49.00
2018-09-17T00:08:40.979Z,48.71
2018-09-17T00:09:40.950Z,48.90
2018-09-17T00:10:40.931Z,45.26
2018-09-17T00:11:40.900Z,52.73
2018-09-17T00:12:40.882Z,52.44
2018-09-17T00:13:40.854Z,51.29
2018-09-17T00:14:40.831Z,51.77
2018-09-17T00:15:40.799Z,50.91
2018-09-17T00:16:40.777Z,52.34
2018-09-17T00:17:40.743Z,48.80
2018-09-17T00:18:40.725Z,53.40
2018-09-17T00:19:40.696Z,53.20
2018-09-17T00:20:40.672Z,54.36
2018-09-17T00:21:40.642Z,56.75
2018-09-17T00:22:40.620Z,55.88
2018-09-17T00:23:40.598Z,56.08
2018-09-17T00:24:40.571Z,57.61
2018-09-17T00:25:40.538Z,56.37
2018-09-17T00:26:40.523Z,56.08
2018-09-17T00:27:40.489Z,53.18
2018-09-17T00:28:40.464Z,57.04
2018-09-17T00:29:40.443Z,60.16
2018-09-17T00:30:40.414Z,58.63
2018-09-17T00:31:40.391Z,59.11
2018-09-17T00:32:40.360Z,58.76
2018-09-17T00:33:40.339Z,57.80
2018-09-17T00:34:40.304Z,58.92
2018-09-17T00:35:40.286Z,57.77
2018-09-17T00:36:40.256Z,61.98
2018-09-17T00:37:40.236Z,61.02
2018-09-17T00:38:40.206Z,60.64
2018-09-17T00:39:40.186Z,58.73
2018-09-17T00:40:40.157Z,56.62
2018-09-17T00:41:40.129Z,57.97
2018-09-17T00:42:40.099Z,58.06
2018-09-17T00:43:40.076Z,57.20
2018-09-17T00:44:40.060Z,56.15
2018-09-17T00:45:40.023Z,58.25
2018-09-17T00:46:40.006Z,59.59
2018-09-17T00:47:39.994Z,57.58
2018-09-17T00:48:39.953Z,57.97
2018-09-17T00:49:39.918Z,60.93
2018-09-17T00:50:39.907Z,60.83
2018-09-17T00:51:39.877Z,60.16
2018-09-17T00:52:39.843Z,59.01
2018-09-17T00:53:39.823Z,59.88
2018-09-17T00:54:39.797Z,58.34
2018-09-17T00:55:39.770Z,59.59
2018-09-17T00:56:39.749Z,59.40
2018-09-17T00:57:39.774Z,59.78
2018-09-17T00:58:39.696Z,58.15
2018-09-17T00:59:39.665Z,60.83
2018-09-17T01:00:39.645Z,59.11
2018-09-17T01:01:39.618Z,58.25
2018-09-17T01:02:39.594Z,58.63
2018-09-17T01:03:39.590Z,58.92
2018-09-17T01:04:39.532Z,59.78
2018-09-17T01:05:39.519Z,61.02
2018-09-17T01:06:39.481Z,59.01
2018-09-17T01:07:39.462Z,59.01
2018-09-17T01:08:39.433Z,58.73
2018-09-17T01:09:39.410Z,56.53
2018-09-17T01:10:39.380Z,56.91
2018-09-17T01:11:39.358Z,56.72
2018-09-17T01:12:39.329Z,56.62
2018-09-17T01:13:39.311Z,56.53
2018-09-17T01:14:39.305Z,55.29
2018-09-17T01:15:39.255Z,54.43
2018-09-17T01:16:39.226Z,52.99
2018-09-17T01:17:39.198Z,54.52
2018-09-17T01:18:39.177Z,52.99
2018-09-17T01:19:39.146Z,52.13
2018-09-17T01:20:39.128Z,52.13
2018-09-17T01:21:39.095Z,51.46
2018-09-17T01:22:39.078Z,58.83
2018-09-17T01:23:39.049Z,58.44
2018-09-17T01:24:39.022Z,56.72
2018-09-17T01:25:38.995Z,55.57
2018-09-17T01:26:38.972Z,54.43
2018-09-17T01:27:38.942Z,54.04
2018-09-17T01:28:38.923Z,55.57
2018-09-17T01:29:38.894Z,54.71
2018-09-17T01:30:38.985Z,58.54
2018-09-17T01:31:38.878Z,55.96
2018-09-17T01:32:38.843Z,56.24
2018-09-17T01:33:38.794Z,55.38
2018-09-17T01:34:38.759Z,55.86
2018-09-17T01:35:38.738Z,54.43
2018-09-17T01:36:38.714Z,55.57
2018-09-17T01:37:38.684Z,55.19
2018-09-17T01:38:38.661Z,56.15
2018-09-17T01:39:38.633Z,58.54
2018-09-17T01:40:38.637Z,57.01
2018-09-17T01:41:38.579Z,58.54
2018-09-17T01:42:38.569Z,64.15
2018-09-17T01:43:38.540Z,63.10
2018-09-17T01:44:38.501Z,61.57
2018-09-17T01:45:38.480Z,60.04
2018-09-17T01:46:38.456Z,58.83
2018-09-17T01:47:38.437Z,58.34
2018-09-17T01:48:38.407Z,60.64
2018-09-17T01:49:38.372Z,59.69
2018-09-17T01:50:38.359Z,59.01
2018-09-17T01:51:38.322Z,59.11
2018-09-17T01:52:38.317Z,63.23
2018-09-17T01:53:38.276Z,61.60
2018-09-17T01:54:38.245Z,60.52
2018-09-17T01:55:38.221Z,59.69
2018-09-17T01:56:38.198Z,57.58
2018-09-17T01:57:38.175Z,59.01
2018-09-17T01:58:38.144Z,59.01
2018-09-17T01:59:38.117Z,59.01
2018-09-17T02:00:38.144Z,59.84
2018-09-17T02:01:38.067Z,60.26
2018-09-17T02:02:38.037Z,59.56
2018-09-17T02:03:38.014Z,60.04
2018-09-17T02:04:37.990Z,59.84
2018-09-17T02:05:37.967Z,57.93
2018-09-17T02:06:37.942Z,57.84
2018-09-17T02:07:37.913Z,57.48
2018-09-17T02:08:37.954Z,57.55
2018-09-17T02:09:37.857Z,58.34
2018-09-17T02:10:37.837Z,59.66
2018-09-17T02:11:37.807Z,61.95
2018-09-17T02:12:37.785Z,60.23
2018-09-17T02:13:37.758Z,59.18
2018-09-17T02:14:37.732Z,59.66
2018-09-17T02:15:37.711Z,60.23
2018-09-17T02:16:37.681Z,61.28
2018-09-17T02:17:37.660Z,60.04
2018-09-17T02:18:37.633Z,60.23
2018-09-17T02:19:37.610Z,59.18
2018-09-17T02:20:37.576Z,58.61
2018-09-17T02:21:37.556Z,58.32
2018-09-17T02:22:37.519Z,58.41
2018-09-17T02:23:37.496Z,58.89
2018-09-17T02:24:37.475Z,58.70
2018-09-17T02:25:37.452Z,58.41
2018-09-17T02:26:37.417Z,56.98
2018-09-17T02:27:37.395Z,56.02
2018-09-17T02:28:37.372Z,56.60
2018-09-17T02:29:37.343Z,56.02
2018-09-17T02:30:37.315Z,56.50
2018-09-17T02:31:37.290Z,56.50
2018-09-17T02:32:37.270Z,55.93
2018-09-17T02:33:37.239Z,55.45
2018-09-17T02:34:37.208Z,56.12
2018-09-17T02:35:37.191Z,55.64
2018-09-17T02:36:37.166Z,54.30
2018-09-17T02:37:37.137Z,57.84
2018-09-17T02:38:37.110Z,56.69
2018-09-17T02:39:37.087Z,63.76
2018-09-17T02:40:37.064Z,60.23
2018-09-17T02:41:37.033Z,61.09
2018-09-17T02:42:37.007Z,63.39
2018-09-17T02:43:36.980Z,60.90
2018-09-17T02:44:36.955Z,62.33
2018-09-17T02:45:36.927Z,61.95
2018-09-17T02:46:36.904Z,62.33
2018-09-17T02:47:36.882Z,61.57
2018-09-17T02:48:36.857Z,63.00
2018-09-17T02:49:36.828Z,61.76
2018-09-17T02:50:36.803Z,64.43
2018-09-17T02:51:36.778Z,65.68
2018-09-17T02:52:36.748Z,60.99
2018-09-17T02:53:36.823Z,67.59
2018-09-17T02:54:36.696Z,65.97
2018-09-17T02:55:36.674Z,64.91
2018-09-17T02:56:36.639Z,65.30
2018-09-17T02:57:36.618Z,63.76
2018-09-17T02:58:36.612Z,63.86
2018-09-17T02:59:36.564Z,65.01
2018-09-17T03:00:36.544Z,66.06
2018-09-17T03:01:36.516Z,63.00
2018-09-17T03:02:36.497Z,61.57
2018-09-17T03:03:36.466Z,64.15
2018-09-17T03:04:36.441Z,62.33
2018-09-17T03:05:36.409Z,63.29
2018-09-17T03:06:36.382Z,62.52
2018-09-17T03:07:36.360Z,62.52
2018-09-17T03:08:36.331Z,68.07
2018-09-17T03:09:36.321Z,68.55
2018-09-17T03:10:36.294Z,68.26
2018-09-17T03:11:36.256Z,65.87
2018-09-17T03:12:36.225Z,68.93
2018-09-17T03:13:36.211Z,69.31
2018-09-17T03:14:36.173Z,67.30
2018-09-17T03:15:36.159Z,66.25
2018-09-17T03:16:36.122Z,64.82
2018-09-17T03:17:36.103Z,64.43
2018-09-17T03:18:36.070Z,63.00
2018-09-17T03:19:36.049Z,64.82
2018-09-17T03:20:36.034Z,66.16
2018-09-17T03:21:36.007Z,64.91
2018-09-17T03:22:35.977Z,66.44
2018-09-17T03:23:35.951Z,66.83
2018-09-17T03:24:35.954Z,66.63
2018-09-17T03:25:35.895Z,65.39
2018-09-17T03:26:35.862Z,65.97
2018-09-17T03:27:35.838Z,65.68
2018-09-17T03:28:35.817Z,66.92
2018-09-17T03:29:35.787Z,68.26
2018-09-17T03:30:35.767Z,68.64
2018-09-17T03:31:35.734Z,67.49
2018-09-17T03:32:35.716Z,68.07
2018-09-17T03:33:35.678Z,68.04
2018-09-17T03:34:35.661Z,66.35
2018-09-17T03:35:35.629Z,65.77
2018-09-17T03:36:35.611Z,69.12
2018-09-17T03:37:35.577Z,67.78
2018-09-17T03:38:35.559Z,67.97
2018-09-17T03:39:35.526Z,67.27
2018-09-17T03:40:35.504Z,63.86
2018-09-17T03:41:35.474Z,63.57
2018-09-17T03:42:35.452Z,62.52
2018-09-17T03:43:35.429Z,64.34
2018-09-17T03:44:35.399Z,64.15
2018-09-17T03:45:35.370Z,62.14
2018-09-17T03:46:35.389Z,63.96
2018-09-17T03:47:35.316Z,62.52
2018-09-17T03:48:35.298Z,65.11
2018-09-17T03:49:35.269Z,68.35
2018-09-17T03:50:35.255Z,69.02
2018-09-17T03:51:35.221Z,69.31
2018-09-17T03:52:35.191Z,69.66
2018-09-17T03:53:35.173Z,69.27
2018-09-17T03:54:35.139Z,68.51
2018-09-17T03:55:35.111Z,68.99
2018-09-17T03:56:35.091Z,68.32
2018-09-17T03:57:35.060Z,68.61
2018-09-17T03:58:35.041Z,67.27
2018-09-17T03:59:35.004Z,65.93
2018-09-17T04:00:34.988Z,66.03
2018-09-17T04:01:34.952Z,65.93
2018-09-17T04:02:34.940Z,66.60
2018-09-17T04:03:34.903Z,66.22
2018-09-17T04:04:34.901Z,66.13
2018-09-17T04:05:34.861Z,63.54
2018-09-17T04:06:34.831Z,63.93
2018-09-17T04:07:34.803Z,62.78
2018-09-17T04:08:34.774Z,62.87
2018-09-17T04:09:34.745Z,63.35
2018-09-17T04:10:34.728Z,63.57
2018-09-17T04:11:34.696Z,62.59
2018-09-17T04:12:34.672Z,64.05
2018-09-17T04:13:34.648Z,63.16
2018-09-17T04:14:34.618Z,65.48
2018-09-17T04:15:34.598Z,66.03
2018-09-17T04:16:34.562Z,64.53
2018-09-17T04:17:34.543Z,63.73
2018-09-17T04:18:34.518Z,62.90
2018-09-17T04:19:34.487Z,62.52
2018-09-17T04:20:34.468Z,64.43
2018-09-17T04:21:34.438Z,65.93
2018-09-17T04:22:34.410Z,65.97
2018-09-17T04:23:34.385Z,65.01
2018-09-17T04:24:34.365Z,65.55
2018-09-17T04:25:34.341Z,63.07
2018-09-17T04:26:34.302Z,67.65
2018-09-17T04:27:34.284Z,64.59
2018-09-17T04:28:34.254Z,63.96
2018-09-17T04:29:34.232Z,65.74
2018-09-17T04:30:34.207Z,63.73
2018-09-17T04:31:34.192Z,67.36
2018-09-17T04:32:34.155Z,64.78
2018-09-17T04:33:34.127Z,62.97
2018-09-17T04:34:34.098Z,62.30
2018-09-17T04:35:34.079Z,61.82
2018-09-17T04:36:34.046Z,62.49
2018-09-17T04:37:34.023Z,62.68
2018-09-17T04:38:33.997Z,61.72
2018-09-17T04:39:33.970Z,60.87
2018-09-17T04:40:33.940Z,61.25
2018-09-17T04:41:33.918Z,62.01
2018-09-17T04:42:33.888Z,62.01
2018-09-17T04:43:33.872Z,63.54
2018-09-17T04:44:33.836Z,62.59
2018-09-17T04:45:33.817Z,60.96
2018-09-17T04:46:33.782Z,60.01
2018-09-17T04:47:33.758Z,60.10
2018-09-17T04:48:33.737Z,62.01
2018-09-17T04:49:33.707Z,60.49
2018-09-17T04:50:33.690Z,60.77
2018-09-17T04:51:33.670Z,60.77
2018-09-17T04:52:33.637Z,63.26
2018-09-17T04:53:33.610Z,64.98
2018-09-17T04:54:33.584Z,63.35
2018-09-17T04:55:33.557Z,62.97
2018-09-17T04:56:33.526Z,66.22
2018-09-17T04:57:33.504Z,65.36
2018-09-17T04:58:33.479Z,66.60
2018-09-17T04:59:33.450Z,65.84
2018-09-17T05:00:33.423Z,62.87
2018-09-17T05:01:33.396Z,63.64
2018-09-17T05:02:33.373Z,63.73
2018-09-17T05:03:33.342Z,63.16
2018-09-17T05:04:33.321Z,65.07
2018-09-17T05:05:33.288Z,65.36
2018-09-17T05:06:33.270Z,66.60
2018-09-17T05:07:33.243Z,66.60
2018-09-17T05:08:33.215Z,66.99
2018-09-17T05:09:33.196Z,67.65
2018-09-17T05:10:33.164Z,68.70
2018-09-17T05:11:33.135Z,68.41
2018-09-17T05:12:33.115Z,67.75
2018-09-17T05:13:33.205Z,67.18
2018-09-17T05:14:33.059Z,66.99
2018-09-17T05:15:33.046Z,66.22
2018-09-17T05:16:32.999Z,66.13
2018-09-17T05:17:32.981Z,65.74
2018-09-17T05:18:32.959Z,64.98
2018-09-17T05:19:32.936Z,65.84
2018-09-17T05:20:32.951Z,64.98
2018-09-17T05:21:32.873Z,64.59
2018-09-17T05:22:32.856Z,64.12
2018-09-17T05:23:32.822Z,66.13
2018-09-17T05:24:32.802Z,66.50
2018-09-17T05:25:32.777Z,65.55
2018-09-17T05:26:32.745Z,63.64
2018-09-17T05:27:32.717Z,61.72
2018-09-17T05:28:32.694Z,60.96
2018-09-17T05:29:32.668Z,61.44
2018-09-17T05:30:32.642Z,60.87
2018-09-17T05:31:32.619Z,61.54
2018-09-17T05:32:32.626Z,61.54
2018-09-17T05:33:32.567Z,61.16
2018-09-17T05:34:32.538Z,61.92
2018-09-17T05:35:32.509Z,61.63
2018-09-17T05:36:32.491Z,62.33
2018-09-17T05:37:32.460Z,62.52
2018-09-17T05:38:32.432Z,62.33
2018-09-17T05:39:32.412Z,62.71
2018-09-17T05:40:32.380Z,63.39
2018-09-17T05:41:32.352Z,61.47
2018-09-17T05:42:32.333Z,61.57
2018-09-17T05:43:32.307Z,61.57
2018-09-17T05:44:32.312Z,61.76
2018-09-17T05:45:32.254Z,64.62
2018-09-17T05:46:32.227Z,63.86
2018-09-17T05:47:32.205Z,62.62
2018-09-17T05:48:32.171Z,62.81
2018-09-17T05:49:32.151Z,62.62
2018-09-17T05:50:32.121Z,61.57
2018-09-17T05:51:32.093Z,63.76
2018-09-17T05:52:32.068Z,63.39
2018-09-17T05:53:32.049Z,61.66
2018-09-17T05:54:32.016Z,61.38
2018-09-17T05:55:32.001Z,61.09
2018-09-17T05:56:31.963Z,61.28
2018-09-17T05:57:31.934Z,61.66
2018-09-17T05:58:31.915Z,60.71
2018-09-17T05:59:31.906Z,64.62
2018-09-17T06:00:31.863Z,64.43
2018-09-17T06:01:31.836Z,63.76
2018-09-17T06:02:31.811Z,63.57
2018-09-17T06:03:31.781Z,65.01
2018-09-17T06:04:31.762Z,66.35
2018-09-17T06:05:31.733Z,64.05
2018-09-17T06:06:31.718Z,65.68
2018-09-17T06:07:31.683Z,65.77
2018-09-17T06:08:31.657Z,66.06
2018-09-17T06:09:31.647Z,65.97
2018-09-17T06:10:31.607Z,68.55
2018-09-17T06:11:31.573Z,66.63
2018-09-17T06:12:31.561Z,66.06
2018-09-17T06:13:31.530Z,64.82
2018-09-17T06:14:31.549Z,66.63
2018-09-17T06:15:31.482Z,67.21
2018-09-17T06:16:31.461Z,65.58
2018-09-17T06:17:31.486Z,64.43
2018-09-17T06:18:31.398Z,65.01
2018-09-17T06:19:31.366Z,67.78
2018-09-17T06:20:31.342Z,67.40
2018-09-17T06:21:31.316Z,67.69
2018-09-17T06:22:31.291Z,68.55
2018-09-17T06:23:31.263Z,68.55
2018-09-17T06:24:31.239Z,68.93
2018-09-17T06:25:31.209Z,67.21
2018-09-17T06:26:31.217Z,66.25
2018-09-17T06:27:31.161Z,67.97
2018-09-17T06:28:31.196Z,65.97
2018-09-17T06:29:31.113Z,66.92
2018-09-17T06:30:31.082Z,66.06
2018-09-17T06:31:31.061Z,70.01
2018-09-17T06:32:31.028Z,68.64
2018-09-17T06:33:31.000Z,69.44
2018-09-17T06:34:30.985Z,68.93
2018-09-17T06:35:30.951Z,68.58
2018-09-17T06:36:30.932Z,68.77
2018-09-17T06:37:30.953Z,69.06
2018-09-17T06:38:30.928Z,69.79
2018-09-17T06:39:30.848Z,67.53
2018-09-17T06:40:30.825Z,68.01
2018-09-17T06:41:30.816Z,66.76
2018-09-17T06:42:30.794Z,64.56
2018-09-17T06:43:30.752Z,68.49
2018-09-17T06:44:30.721Z,68.49
2018-09-17T06:45:30.739Z,69.92
2018-09-17T06:46:30.670Z,67.24
2018-09-17T06:47:30.638Z,66.47
2018-09-17T06:48:30.619Z,66.47
2018-09-17T06:49:30.586Z,63.89
2018-09-17T06:50:30.569Z,64.47
2018-09-17T06:51:30.595Z,66.00
2018-09-17T06:52:30.515Z,64.85
2018-09-17T06:53:30.483Z,65.71
2018-09-17T06:54:30.462Z,67.14
2018-09-17T06:55:30.434Z,66.57
2018-09-17T06:56:30.405Z,67.72
2018-09-17T06:57:30.387Z,67.72
2018-09-17T06:58:30.353Z,64.85
2018-09-17T06:59:30.339Z,68.58
2018-09-17T07:00:30.303Z,66.57
2018-09-17T07:01:30.297Z,65.81
2018-09-17T07:02:30.315Z,63.89
2018-09-17T07:03:30.229Z,63.80
2018-09-17T07:04:30.203Z,62.40
2018-09-17T07:05:30.179Z,62.59
2018-09-17T07:06:30.146Z,67.94
2018-09-17T07:07:30.119Z,66.99
2018-09-17T07:08:30.103Z,68.23
2018-09-17T07:09:30.085Z,66.22
2018-09-17T07:10:30.045Z,65.65
2018-09-17T07:11:30.032Z,64.40
2018-09-17T07:12:30.003Z,66.03
2018-09-17T07:13:29.984Z,64.88
2018-09-17T07:14:29.977Z,67.85
2018-09-17T07:15:29.934Z,67.08
2018-09-17T07:16:29.893Z,66.89
2018-09-17T07:17:29.874Z,67.27
2018-09-17T07:18:29.842Z,67.76
2018-09-17T07:19:29.813Z,67.27
2018-09-17T07:20:29.791Z,65.78
2018-09-17T07:21:29.757Z,66.70
2018-09-17T07:22:29.741Z,66.74
2018-09-17T07:23:29.719Z,66.83
2018-09-17T07:24:29.685Z,64.53
2018-09-17T07:25:29.671Z,65.20
2018-09-17T07:26:29.631Z,66.64
2018-09-17T07:27:29.606Z,68.36
2018-09-17T07:28:29.585Z,67.79
2018-09-17T07:29:29.563Z,68.17
2018-09-17T07:30:29.527Z,71.62
2018-09-17T07:31:29.509Z,68.36
2018-09-17T07:32:29.484Z,69.03
2018-09-17T07:33:29.455Z,67.69
2018-09-17T07:34:29.431Z,67.50
2018-09-17T07:35:29.401Z,69.42
2018-09-17T07:36:29.449Z,71.52
2018-09-17T07:37:29.348Z,69.80
2018-09-17T07:38:29.333Z,69.93
2018-09-17T07:39:29.301Z,71.66
2018-09-17T07:40:29.275Z,73.57
2018-09-17T07:41:29.250Z,72.90
2018-09-17T07:42:29.261Z,75.01
2018-09-17T07:43:29.194Z,76.06
2018-09-17T07:44:29.176Z,77.40
2018-09-17T07:45:29.140Z,76.06
2018-09-17T07:46:29.123Z,78.84
2018-09-17T07:47:29.097Z,76.73
2018-09-17T07:48:29.069Z,77.11
2018-09-17T07:49:29.041Z,76.54
2018-09-17T07:50:29.015Z,76.54
2018-09-17T07:51:28.991Z,76.00
2018-09-17T07:52:28.968Z,77.34
2018-09-17T07:53:28.943Z,77.63
2018-09-17T07:54:28.916Z,77.34
2018-09-17T07:55:28.904Z,78.20
2018-09-17T07:56:28.862Z,78.49
2018-09-17T07:57:28.833Z,79.45
2018-09-17T07:58:28.819Z,77.53
2018-09-17T07:59:28.788Z,77.67
2018-09-17T08:00:28.762Z,78.82
2018-09-17T08:01:28.736Z,76.62
2018-09-17T08:02:28.716Z,78.72
2018-09-17T08:03:28.683Z,78.82
2018-09-17T08:04:28.660Z,81.31
2018-09-17T08:05:28.661Z,80.93
2018-09-17T08:06:28.606Z,80.26
2018-09-17T08:07:28.583Z,81.16
2018-09-17T08:08:28.563Z,80.68
2018-09-17T08:09:28.534Z,80.87
2018-09-17T08:10:28.511Z,81.45
2018-09-17T08:11:29.047Z,83.37
2018-09-17T08:12:28.456Z,83.56
2018-09-17T08:13:28.445Z,83.94
2018-09-17T08:14:28.423Z,83.37
2018-09-17T08:15:28.383Z,86.34
2018-09-17T08:16:28.366Z,86.34
2018-09-17T08:17:28.336Z,85.67
2018-09-17T08:18:28.301Z,83.85
2018-09-17T08:19:28.281Z,83.41
2018-09-17T08:20:28.251Z,85.81
2018-09-17T08:21:28.225Z,89.75
2018-09-17T08:22:28.210Z,87.63
2018-09-17T08:23:28.182Z,88.21
2018-09-17T08:24:28.176Z,89.94
2018-09-17T08:25:28.193Z,90.08
2018-09-17T08:26:28.100Z,88.83
2018-09-17T08:27:28.081Z,91.71
2018-09-17T08:28:28.052Z,90.56
2018-09-17T08:29:28.028Z,90.66
2018-09-17T08:30:28.005Z,89.83
2018-09-17T08:31:27.996Z,89.74
2018-09-17T08:32:27.958Z,92.14
2018-09-17T08:33:27.926Z,94.35
2018-09-17T08:34:27.906Z,92.91
2018-09-17T08:35:27.882Z,92.81
2018-09-17T08:36:27.855Z,92.24
2018-09-17T08:37:27.830Z,96.85
2018-09-17T08:38:27.803Z,92.91
2018-09-17T08:39:27.928Z,92.62
2018-09-17T08:40:27.753Z,94.06
2018-09-17T08:41:27.725Z,94.11
2018-09-17T08:42:27.705Z,92.29
2018-09-17T08:43:27.681Z,92.19
2018-09-17T08:44:27.646Z,91.32
2018-09-17T08:45:27.660Z,93.24
2018-09-17T08:46:27.648Z,92.38
2018-09-17T08:47:27.574Z,94.49
2018-09-17T08:48:27.551Z,93.63
2018-09-17T08:49:27.524Z,93.34
2018-09-17T08:50:27.503Z,98.44
2018-09-17T08:51:27.477Z,99.98
2018-09-17T08:52:27.455Z,99.99
2018-09-17T08:53:27.427Z,99.44
2018-09-17T08:54:27.405Z,98.10
2018-09-17T08:55:27.381Z,97.52
2018-09-17T08:56:27.345Z,98.00
2018-09-17T08:57:27.327Z,99.93
2018-09-17T08:58:27.304Z,98.49
2018-09-17T08:59:27.278Z,98.19
2018-09-17T09:00:27.266Z,97.91
2018-09-17T09:01:27.230Z,99.06
2018-09-17T09:02:27.205Z,99.64
2018-09-17T09:03:27.180Z,98.39
2018-09-17T09:04:27.153Z,98.00
2018-09-17T09:05:27.128Z,97.91
2018-09-17T09:06:27.107Z,98.39
2018-09-17T09:07:27.084Z,99.01
2018-09-17T09:08:27.056Z,98.54
2018-09-17T09:09:27.036Z,98.24
2018-09-17T09:10:27.001Z,99.83
2018-09-17T09:11:26.980Z,99.11
2018-09-17T09:12:26.962Z,99.01
2018-09-17T09:13:26.932Z,98.54
2018-09-17T09:14:26.905Z,99.59
2018-09-17T09:15:26.886Z,99.88
2018-09-17T09:16:26.871Z,98.63
2018-09-17T09:17:26.844Z,98.72
2018-09-17T09:18:26.810Z,99.21
2018-09-17T09:19:26.791Z,98.44
2018-09-17T09:20:26.763Z,97.76
2018-09-17T09:21:26.738Z,97.96
2018-09-17T09:22:26.706Z,98.14
2018-09-17T09:23:26.686Z,98.00
2018-09-17T09:24:26.662Z,97.62
2018-09-17T09:25:26.634Z,97.62
2018-09-17T09:26:26.629Z,97.91
2018-09-17T09:27:26.586Z,97.62
2018-09-17T09:28:26.563Z,97.62
2018-09-17T09:29:26.541Z,96.46
2018-09-17T09:30:26.514Z,97.04
2018-09-17T09:31:26.484Z,96.75
2018-09-17T09:32:26.468Z,97.14
2018-09-17T09:33:26.435Z,97.72
2018-09-17T09:34:26.421Z,97.81
2018-09-17T09:35:26.396Z,98.10
2018-09-17T09:36:26.449Z,97.33
2018-09-17T09:37:26.377Z,96.85
2018-09-17T09:38:26.328Z,97.47
2018-09-17T09:39:26.300Z,97.81
2018-09-17T09:40:26.268Z,95.79
2018-09-17T09:41:26.247Z,93.38
2018-09-17T09:42:26.226Z,92.76
2018-09-17T09:43:26.208Z,90.25
2018-09-17T09:44:26.178Z,90.34
2018-09-17T09:45:26.140Z,91.41
2018-09-17T09:46:26.170Z,85.53
2018-09-17T09:47:26.095Z,86.01
2018-09-17T09:48:26.077Z,87.84
2018-09-17T09:49:26.047Z,87.46
2018-09-17T09:50:26.025Z,89.39
2018-09-17T09:51:26.108Z,90.92
2018-09-17T09:52:25.974Z,91.12
2018-09-17T09:53:25.947Z,91.31
2018-09-17T09:54:25.930Z,91.55
2018-09-17T09:55:26.404Z,83.64
2018-09-17T09:56:25.885Z,87.40
2018-09-17T09:57:25.865Z,78.34
2018-09-17T09:58:25.827Z,82.10
2018-09-17T09:59:25.844Z,84.70
2018-09-17T10:00:25.784Z,86.54
2018-09-17T10:01:25.802Z,85.96
2018-09-17T10:02:25.731Z,80.37
2018-09-17T10:03:25.710Z,77.38
2018-09-17T10:04:25.679Z,76.13
2018-09-17T10:05:25.657Z,73.72
2018-09-17T10:06:25.650Z,75.26
2018-09-17T10:07:25.605Z,75.65
2018-09-17T10:08:25.581Z,74.58
2018-09-17T10:09:25.562Z,74.78
2018-09-17T10:10:25.538Z,74.40
2018-09-17T10:11:25.510Z,75.26
2018-09-17T10:12:25.490Z,69.90
2018-09-17T10:13:25.467Z,70.67
2018-09-17T10:14:25.440Z,71.34
2018-09-17T10:15:25.485Z,74.91
2018-09-17T10:16:25.393Z,74.24
2018-09-17T10:17:25.365Z,71.92
2018-09-17T10:18:25.366Z,68.93
2018-09-17T10:19:25.403Z,68.55
2018-09-17T10:20:25.294Z,67.49
2018-09-17T10:21:25.276Z,62.66
2018-09-17T10:22:25.271Z,63.15
2018-09-17T10:23:25.223Z,65.08
2018-09-17T10:24:25.191Z,66.43
2018-09-17T10:25:25.172Z,65.95
2018-09-17T10:26:25.151Z,66.43
2018-09-17T10:27:25.120Z,66.62
2018-09-17T10:28:25.104Z,68.29
2018-09-17T10:29:25.070Z,66.91
2018-09-17T10:30:25.050Z,65.75
2018-09-17T10:31:25.090Z,65.17
2018-09-17T10:32:25.003Z,65.75
2018-09-17T10:33:25.020Z,66.46
2018-09-17T10:34:24.959Z,69.16
2018-09-17T10:35:24.931Z,70.61
2018-09-17T10:36:24.909Z,72.25
2018-09-17T10:37:24.878Z,69.16
2018-09-17T10:38:24.861Z,65.40
2018-09-17T10:39:24.834Z,62.99
2018-09-17T10:40:24.816Z,64.92
2018-09-17T10:41:24.786Z,63.85
2018-09-17T10:42:24.758Z,64.43
2018-09-17T10:43:24.739Z,65.88
2018-09-17T10:44:24.739Z,64.05
2018-09-17T10:45:24.691Z,63.57
2018-09-17T10:46:24.662Z,62.99
2018-09-17T10:47:24.638Z,64.63
2018-09-17T10:48:24.619Z,63.47
2018-09-17T10:49:24.593Z,64.43
2018-09-17T10:50:24.566Z,62.31
2018-09-17T10:51:24.545Z,61.54
2018-09-17T10:52:24.522Z,61.35
2018-09-17T10:53:24.542Z,62.41
2018-09-17T10:54:24.468Z,63.50
2018-09-17T10:55:24.457Z,64.95
2018-09-17T10:56:24.419Z,66.78
2018-09-17T10:57:24.425Z,68.71
2018-09-17T10:58:24.379Z,69.87
2018-09-17T10:59:24.352Z,70.54
2018-09-17T11:00:24.333Z,67.27
2018-09-17T11:01:24.316Z,68.52
2018-09-17T11:02:24.287Z,68.62
2018-09-17T11:03:24.265Z,69.68
2018-09-17T11:04:24.232Z,70.54
2018-09-17T11:05:24.212Z,68.43
2018-09-17T11:06:24.188Z,68.52
2018-09-17T11:07:24.169Z,68.91
2018-09-17T11:08:24.197Z,63.02
2018-09-17T11:09:24.109Z,62.25
2018-09-17T11:10:24.093Z,62.82
2018-09-17T11:11:24.061Z,63.21
2018-09-17T11:12:24.095Z,62.82
2018-09-17T11:13:24.019Z,61.47
2018-09-17T11:14:23.993Z,60.51
2018-09-17T11:15:23.968Z,59.06
2018-09-17T11:16:24.004Z,57.64
2018-09-17T11:17:24.000Z,57.84
2018-09-17T11:18:23.900Z,57.93
2018-09-17T11:19:23.879Z,57.26
2018-09-17T11:20:23.847Z,57.93
2018-09-17T11:21:23.824Z,59.09
2018-09-17T11:22:23.807Z,60.44
2018-09-17T11:23:23.813Z,59.77
2018-09-17T11:24:23.755Z,56.96
2018-09-17T11:25:23.813Z,56.20
2018-09-17T11:26:23.703Z,57.06
2018-09-17T11:27:23.679Z,56.99
2018-09-17T11:28:23.656Z,57.45
2018-09-17T11:29:23.631Z,56.71
2018-09-17T11:30:23.669Z,55.65
2018-09-17T11:31:23.645Z,55.16
2018-09-17T11:32:23.656Z,55.07
2018-09-17T11:33:23.533Z,55.26
2018-09-17T11:34:23.512Z,56.90
2018-09-17T11:35:23.515Z,55.83
2018-09-17T11:36:23.464Z,55.74
2018-09-17T11:37:23.501Z,54.87
2018-09-17T11:38:23.419Z,55.26
2018-09-17T11:39:23.425Z,56.13
2018-09-17T11:40:23.370Z,56.41
2018-09-17T11:41:23.350Z,56.71
2018-09-17T11:42:23.367Z,55.83
2018-09-17T11:43:23.299Z,54.58
2018-09-17T11:44:23.280Z,54.10
2018-09-17T11:45:23.256Z,54.00
2018-09-17T11:46:23.228Z,54.49
2018-09-17T11:47:23.209Z,51.61
2018-09-17T11:48:23.182Z,52.39
2018-09-17T11:49:23.157Z,51.13
2018-09-17T11:50:23.147Z,50.74
2018-09-17T11:51:23.109Z,49.29
2018-09-17T11:52:23.091Z,49.77
2018-09-17T11:53:23.089Z,49.97
2018-09-17T11:54:23.044Z,50.65
2018-09-17T11:55:23.016Z,50.93
2018-09-17T11:56:22.996Z,52.09
2018-09-17T11:57:22.968Z,52.19
2018-09-17T11:58:22.949Z,51.23
2018-09-17T11:59:22.927Z,52.29
2018-09-17T12:00:22.895Z,52.97
2018-09-17T12:01:22.931Z,52.67
2018-09-17T12:02:22.853Z,52.67
2018-09-17T12:03:22.890Z,51.32
2018-09-17T12:04:22.811Z,49.80
2018-09-17T12:05:22.781Z,49.22
2018-09-17T12:06:22.827Z,48.16
2018-09-17T12:07:22.738Z,47.48
2018-09-17T12:08:22.707Z,47.02
2018-09-17T12:09:22.758Z,46.05
2018-09-17T12:10:22.673Z,44.29
2018-09-17T12:11:22.674Z,44.98
2018-09-17T12:12:22.613Z,44.60
2018-09-17T12:13:22.588Z,45.28
2018-09-17T12:14:22.577Z,46.44
2018-09-17T12:15:22.543Z,46.63
2018-09-17T12:16:22.596Z,45.28
2018-09-17T12:17:22.493Z,44.70
2018-09-17T12:18:22.490Z,44.98
2018-09-17T12:19:22.456Z,45.95
2018-09-17T12:20:22.422Z,44.98
2018-09-17T12:21:22.410Z,45.86
2018-09-17T12:22:22.376Z,46.53
2018-09-17T12:23:22.434Z,47.89
2018-09-17T12:24:22.330Z,48.66
2018-09-17T12:25:22.345Z,48.86
2018-09-17T12:26:22.291Z,47.31
2018-09-17T12:27:22.261Z,45.47
2018-09-17T12:28:22.235Z,44.12
2018-09-17T12:29:22.216Z,44.02
2018-09-17T12:30:22.200Z,43.15
2018-09-17T12:31:22.229Z,42.59
2018-09-17T12:32:22.150Z,43.07
2018-09-17T12:33:22.142Z,44.72
2018-09-17T12:34:22.104Z,44.91
2018-09-17T12:35:22.079Z,42.30
2018-09-17T12:36:22.055Z,41.82
2018-09-17T12:37:22.038Z,42.59
2018-09-17T12:38:22.007Z,41.72
2018-09-17T12:39:21.987Z,40.84
2018-09-17T12:40:21.957Z,41.33
2018-09-17T12:41:21.937Z,41.83
2018-09-17T12:42:21.911Z,41.04
2018-09-17T12:43:21.891Z,42.22
2018-09-17T12:44:21.864Z,41.06
2018-09-17T12:45:21.872Z,41.25
2018-09-17T12:46:21.819Z,41.06
2018-09-17T12:47:21.797Z,40.19
2018-09-17T12:48:21.778Z,41.16
2018-09-17T12:49:21.753Z,41.93
2018-09-17T12:50:21.728Z,41.06
2018-09-17T12:51:21.712Z,39.22
2018-09-17T12:52:21.714Z,38.64